createdAt,value
2019-05-20T19:46:25.472Z,41.63
2019-05-20T19:48:53.847Z,39.80
2019-05-20T19:51:22.357Z,40.37
2019-05-20T19:53:50.700Z,39.93
2019-05-20T19:56:19.058Z,39.03
2019-05-20T19:58:47.364Z,37.90
2019-05-20T20:01:15.871Z,35.13
2019-05-20T20:03:44.264Z,36.70
2019-05-20T20:06:12.574Z,40.50
2019-05-20T20:08:41.224Z,39.93
2019-05-20T20:11:09.576Z,36.10
2019-05-20T20:13:37.898Z,37.00
2019-05-20T20:16:06.500Z,38.60
2019-05-20T20:18:34.862Z,36.20
2019-05-20T20:21:03.296Z,37.87
2019-05-20T20:23:31.764Z,34.80
2019-05-20T20:26:00.426Z,36.00
2019-05-20T20:28:28.899Z,36.13
2019-05-20T20:30:57.271Z,37.63
2019-05-20T20:33:25.754Z,36.63
2019-05-20T20:35:54.227Z,34.00
2019-05-20T20:38:22.527Z,32.13
2019-05-20T20:40:51.010Z,31.10
2019-05-20T20:43:19.611Z,33.63
2019-05-20T20:45:48.003Z,33.00
2019-05-20T20:48:16.424Z,32.17
2019-05-20T20:50:44.936Z,32.10
2019-05-20T20:53:13.258Z,33.60
2019-05-20T20:55:41.589Z,35.57
2019-05-20T20:58:09.988Z,32.33
2019-05-20T21:00:38.387Z,32.90
2019-05-20T21:03:06.900Z,32.50
2019-05-20T21:05:35.436Z,30.90
2019-05-20T21:08:03.864Z,29.70
2019-05-20T21:10:32.375Z,30.23
2019-05-20T21:13:00.740Z,28.07
2019-05-20T21:15:29.067Z,28.20
2019-05-20T21:17:57.469Z,27.03
2019-05-20T21:20:25.914Z,25.90
2019-05-20T21:22:54.528Z,27.30
2019-05-20T21:25:22.941Z,26.17
2019-05-20T21:27:51.293Z,25.60
2019-05-20T21:30:19.906Z,24.77
2019-05-20T21:32:48.310Z,25.77
2019-05-20T21:35:16.605Z,28.20
2019-05-20T21:37:45.043Z,27.17
2019-05-20T21:40:13.479Z,27.40
2019-05-20T21:42:41.780Z,28.63
2019-05-20T21:45:10.193Z,28.37
2019-05-20T21:47:38.579Z,29.23
2019-05-20T21:50:07.461Z,28.97
2019-05-20T21:52:35.777Z,28.57
2019-05-20T21:55:05.568Z,27.77
2019-05-20T21:57:34.164Z,30.00
2019-05-20T22:00:03.404Z,27.83
2019-05-20T22:02:31.776Z,27.17
2019-05-20T22:05:00.203Z,27.10
2019-05-20T22:07:28.847Z,25.93
2019-05-20T22:09:57.250Z,26.07
2019-05-20T22:12:25.663Z,25.10
2019-05-20T22:14:55.553Z,26.77
2019-05-20T22:17:24.151Z,25.03
2019-05-20T22:19:52.533Z,23.87
2019-05-20T22:22:41.826Z,24.10
2019-05-20T22:25:10.226Z,22.83
2019-05-20T22:27:38.543Z,21.30
2019-05-20T22:30:08.046Z,20.80
2019-05-20T22:32:36.498Z,22.00
2019-05-20T22:35:06.982Z,21.40
2019-05-20T22:37:35.588Z,21.77
2019-05-20T22:40:06.172Z,25.47
2019-05-20T22:42:34.722Z,21.50
2019-05-20T22:45:03.141Z,20.50
2019-05-20T22:47:31.463Z,21.13
2019-05-20T22:49:59.885Z,22.53
2019-05-20T22:52:28.335Z,21.93
2019-05-20T22:54:56.805Z,22.73
2019-05-20T22:57:25.126Z,22.07
2019-05-20T22:59:53.492Z,21.60
2019-05-20T23:02:21.833Z,22.67
2019-05-20T23:04:50.212Z,20.60
2019-05-20T23:07:18.612Z,21.43
2019-05-20T23:09:47.085Z,21.23
2019-05-20T23:12:15.488Z,21.40
2019-05-20T23:14:43.787Z,21.03
2019-05-20T23:17:12.209Z,19.00
2019-05-20T23:19:40.579Z,18.57
2019-05-20T23:22:08.920Z,18.00
2019-05-20T23:24:37.423Z,17.10
2019-05-20T23:27:07.065Z,20.13
2019-05-20T23:29:35.360Z,18.70
2019-05-20T23:32:03.740Z,16.27
2019-05-20T23:34:32.175Z,14.80
2019-05-20T23:37:00.638Z,12.07
2019-05-20T23:39:29.032Z,9.90
2019-05-20T23:41:57.325Z,10.93
2019-05-20T23:44:25.703Z,8.53
2019-05-20T23:46:54.077Z,8.37
2019-05-20T23:49:22.588Z,8.23
2019-05-20T23:51:51.079Z,8.70
2019-05-20T23:54:19.447Z,6.97
2019-05-20T23:56:47.750Z,7.30
2019-05-20T23:59:16.076Z,7.00
